Contreras, New Mexico
Current Conditions -  °F | °C
As of 6:55 PM on Wednesday 26 Nov 2014 (Local Time) from KONM Reporting Station
Clear Clear  
Wind Chill: 51°   Ceiling: Unl
Heat Index: 51°   Visibility: 10mi
Dew Point: 22°   Wind: 13mph
Humidity: 32%   Direction: 320°NW
Pressure: 30.34"   Gusts: NA
Location:  34.3166°N, 106.801°W
Report Text: KONM 270155Z AUTO 32011KT 10SM CLR 10/M06 A3034 RMK AO2 T01031057
Loading
Personal Weather Stations






























Interactive Weather Map New forecast layout! Learn more

10-Day Weather Forecast

Advertisements
Track Severe Weather on mobile